createdAt,value
2022-10-05T00:02:22.083Z,81.81
2022-10-05T00:04:52.694Z,83.11
2022-10-05T00:07:21.369Z,85.22
2022-10-05T00:09:56.371Z,85.03
2022-10-05T00:12:24.459Z,82.37
2022-10-05T00:14:57.829Z,83.13
2022-10-05T00:17:27.897Z,82.74
2022-10-05T00:19:55.147Z,84.67
2022-10-05T00:22:24.341Z,84.24
2022-10-05T00:24:56.476Z,85.62
2022-10-05T00:27:26.471Z,84.44
2022-10-05T00:29:58.536Z,84.06
2022-10-05T00:32:26.431Z,83.98
2022-10-05T00:34:54.448Z,84.86
2022-10-05T00:37:21.067Z,84.07
2022-10-05T00:39:49.633Z,84.26
2022-10-05T00:42:36.365Z,82.48
2022-10-05T00:45:18.222Z,82.60
2022-10-05T00:48:03.077Z,80.21
2022-10-05T00:50:42.022Z,81.35
2022-10-05T00:53:26.798Z,82.37
2022-10-05T00:56:07.440Z,84.01
2022-10-05T00:58:41.489Z,83.79
2022-10-05T01:01:14.808Z,83.96
2022-10-05T01:04:03.242Z,86.15
2022-10-05T01:06:44.331Z,88.00
2022-10-05T01:09:26.402Z,87.83
2022-10-05T01:12:07.612Z,90.66
2022-10-05T01:14:49.012Z,89.19
2022-10-05T01:17:35.056Z,86.47
2022-10-05T01:20:27.256Z,86.04
2022-10-05T01:23:41.468Z,84.33
2022-10-05T01:26:35.307Z,82.28
2022-10-05T01:29:09.070Z,85.45
2022-10-05T01:31:45.218Z,86.05
2022-10-05T01:35:00.162Z,88.11
2022-10-05T01:37:30.468Z,90.01
2022-10-05T01:40:28.265Z,91.79
2022-10-05T01:43:20.409Z,93.86
2022-10-05T01:46:07.056Z,94.83
2022-10-05T01:48:48.045Z,97.39
2022-10-05T01:51:33.624Z,97.65
2022-10-05T01:54:08.644Z,98.68
2022-10-05T01:56:59.751Z,98.98
2022-10-05T01:59:56.129Z,99.34
2022-10-05T02:02:26.137Z,100.00
2022-10-05T02:05:03.611Z,100.00
2022-10-05T02:07:36.788Z,100.00
2022-10-05T02:10:49.416Z,100.00
2022-10-05T02:13:29.244Z,100.00
2022-10-05T02:16:03.653Z,100.00
2022-10-05T02:18:49.923Z,100.00
2022-10-05T02:21:18.501Z,100.00
2022-10-05T02:23:49.657Z,100.00
2022-10-05T02:26:17.597Z,100.00
2022-10-05T02:28:50.505Z,100.00
2022-10-05T02:31:29.409Z,100.00
2022-10-05T02:34:22.792Z,100.00
2022-10-05T02:37:15.825Z,100.00
2022-10-05T02:40:08.426Z,100.00
2022-10-05T02:42:55.498Z,100.00
2022-10-05T02:45:57.183Z,100.00
2022-10-05T02:48:42.726Z,100.00
2022-10-05T02:51:36.400Z,100.00
2022-10-05T02:54:40.901Z,100.00
2022-10-05T02:57:22.119Z,100.00
2022-10-05T03:00:02.189Z,100.00
2022-10-05T03:02:56.486Z,100.00
2022-10-05T03:05:41.974Z,100.00
2022-10-05T03:08:14.977Z,100.00
2022-10-05T03:10:56.870Z,100.00
2022-10-05T03:13:48.557Z,100.00
2022-10-05T03:16:39.419Z,100.00
2022-10-05T03:19:31.326Z,100.00
2022-10-05T03:22:09.306Z,100.00
2022-10-05T03:25:01.062Z,100.00
2022-10-05T03:27:50.258Z,100.00
2022-10-05T03:30:21.780Z,100.00
2022-10-05T03:33:06.397Z,100.00
2022-10-05T03:35:49.330Z,100.00
2022-10-05T03:38:35.918Z,100.00
2022-10-05T03:41:16.249Z,100.00
2022-10-05T03:44:01.147Z,100.00
2022-10-05T03:46:43.028Z,100.00
2022-10-05T03:49:28.756Z,100.00
2022-10-05T03:52:04.091Z,100.00
2022-10-05T03:54:39.465Z,100.00
2022-10-05T03:57:28.315Z,100.00
2022-10-05T04:00:05.245Z,100.00
2022-10-05T04:02:48.202Z,100.00
2022-10-05T04:05:21.753Z,100.00
2022-10-05T04:07:56.798Z,100.00
2022-10-05T04:10:35.087Z,100.00
2022-10-05T04:13:09.932Z,100.00
2022-10-05T04:15:39.859Z,100.00
2022-10-05T04:18:18.097Z,100.00
2022-10-05T04:20:52.100Z,100.00
2022-10-05T04:23:37.767Z,100.00
2022-10-05T04:26:11.612Z,100.00
2022-10-05T04:28:56.067Z,100.00
2022-10-05T04:31:52.434Z,100.00
2022-10-05T04:34:58.262Z,100.00
2022-10-05T04:37:31.348Z,100.00
2022-10-05T04:40:26.365Z,100.00
2022-10-05T04:43:13.306Z,100.00
2022-10-05T04:46:08.009Z,100.00
2022-10-05T04:49:16.875Z,100.00
2022-10-05T04:52:01.789Z,100.00
2022-10-05T04:54:50.521Z,100.00
2022-10-05T04:57:25.116Z,100.00
2022-10-05T05:00:05.650Z,100.00
2022-10-05T05:02:47.721Z,100.00
2022-10-05T05:05:33.725Z,100.00
2022-10-05T05:08:11.401Z,100.00
2022-10-05T05:11:13.745Z,100.00
2022-10-05T05:17:56.488Z,100.00
2022-10-05T05:21:05.005Z,100.00
2022-10-05T05:23:55.583Z,100.00
2022-10-05T05:26:53.409Z,100.00
2022-10-05T05:29:37.247Z,100.00
2022-10-05T05:32:10.608Z,100.00
2022-10-05T05:35:11.785Z,100.00
2022-10-05T05:38:09.815Z,100.00
2022-10-05T05:40:47.699Z,100.00
2022-10-05T05:43:33.402Z,100.00
2022-10-05T05:46:06.267Z,100.00
2022-10-05T05:48:44.181Z,100.00
2022-10-05T05:51:19.592Z,100.00
2022-10-05T05:53:53.376Z,100.00
2022-10-05T05:56:42.050Z,100.00
2022-10-05T05:59:20.168Z,100.00
2022-10-05T06:01:53.222Z,100.00
2022-10-05T06:04:29.434Z,100.00
2022-10-05T06:06:58.258Z,100.00
2022-10-05T06:09:42.020Z,100.00
2022-10-05T06:12:36.136Z,100.00
2022-10-05T06:15:22.635Z,100.00
2022-10-05T06:17:54.762Z,100.00
2022-10-05T06:20:31.004Z,100.00
2022-10-05T06:23:02.577Z,100.00
2022-10-05T06:26:12.095Z,100.00
2022-10-05T06:28:41.870Z,100.00
2022-10-05T06:31:35.143Z,100.00
2022-10-05T06:34:28.748Z,100.00
2022-10-05T06:37:00.951Z,100.00
2022-10-05T06:39:37.793Z,100.00
2022-10-05T06:42:52.051Z,100.00
2022-10-05T06:46:06.314Z,100.00
2022-10-05T06:49:00.359Z,100.00
2022-10-05T06:52:04.599Z,100.00
2022-10-05T06:54:36.338Z,100.00
2022-10-05T06:57:03.304Z,100.00
2022-10-05T06:59:50.289Z,100.00
2022-10-05T07:02:30.847Z,100.00
2022-10-05T07:05:12.906Z,100.00
2022-10-05T07:07:57.898Z,100.00
2022-10-05T07:10:51.174Z,100.00
2022-10-05T07:14:00.122Z,100.00
2022-10-05T07:16:42.088Z,100.00
2022-10-05T07:19:46.212Z,100.00
2022-10-05T07:22:34.244Z,96.88
2022-10-05T07:25:12.072Z,89.99
2022-10-05T07:27:51.779Z,84.09
2022-10-05T07:30:19.385Z,81.13
2022-10-05T07:33:17.793Z,77.06
2022-10-05T07:36:18.834Z,78.68
2022-10-05T07:39:03.171Z,79.19
2022-10-05T07:41:51.865Z,81.48
2022-10-05T07:44:30.959Z,82.79
2022-10-05T07:47:15.519Z,84.09
2022-10-05T07:50:04.125Z,83.27
2022-10-05T07:52:39.929Z,82.49
2022-10-05T07:55:31.885Z,81.66
2022-10-05T07:58:39.848Z,82.70
2022-10-05T08:01:13.552Z,81.62
2022-10-05T08:04:09.778Z,79.62
2022-10-05T08:07:00.609Z,78.85
2022-10-05T08:09:35.890Z,78.55
2022-10-05T08:12:24.355Z,79.14
2022-10-05T08:15:04.349Z,78.06
2022-10-05T08:17:38.055Z,77.03
2022-10-05T08:20:33.690Z,76.88
2022-10-05T08:23:31.634Z,76.10
2022-10-05T08:26:32.321Z,74.84
2022-10-05T08:29:04.939Z,75.60
2022-10-05T08:31:37.898Z,74.30
2022-10-05T08:34:23.160Z,73.56
2022-10-05T08:37:02.522Z,76.56
2022-10-05T08:39:37.369Z,74.51
2022-10-05T08:42:25.796Z,76.14
2022-10-05T08:45:01.916Z,72.51
2022-10-05T08:47:49.906Z,71.83
2022-10-05T08:50:35.460Z,70.58
2022-10-05T08:53:32.955Z,70.16
2022-10-05T08:56:27.765Z,69.30
2022-10-05T08:59:14.160Z,68.46
2022-10-05T09:01:50.453Z,68.50
2022-10-05T09:04:55.076Z,66.00
2022-10-05T09:07:46.218Z,61.72
2022-10-05T09:10:53.487Z,57.98
2022-10-05T09:13:48.088Z,54.70
2022-10-05T09:16:38.121Z,55.08
2022-10-05T09:19:32.598Z,53.80
2022-10-05T09:22:18.185Z,52.25
2022-10-05T09:24:58.128Z,50.70
2022-10-05T09:27:36.877Z,51.51
2022-10-05T09:30:30.466Z,49.20
2022-10-05T09:33:18.574Z,48.33
2022-10-05T09:36:03.456Z,44.66
2022-10-05T09:39:17.981Z,44.70
2022-10-05T09:42:06.042Z,47.40
2022-10-05T09:44:53.926Z,46.14
2022-10-05T09:47:59.995Z,47.27
2022-10-05T09:50:46.603Z,44.46
2022-10-05T09:53:40.737Z,46.70
2022-10-05T09:56:34.883Z,45.34
2022-10-05T09:59:10.997Z,42.31
2022-10-05T10:02:00.631Z,45.38
2022-10-05T10:04:52.003Z,43.43
2022-10-05T10:08:13.217Z,45.12
2022-10-05T10:10:48.534Z,47.56
2022-10-05T10:13:18.185Z,44.90
2022-10-05T10:16:04.542Z,46.89
2022-10-05T10:18:59.414Z,45.42
2022-10-05T10:22:17.850Z,43.20
2022-10-05T10:25:20.950Z,41.46
2022-10-05T10:28:02.887Z,44.17
2022-10-05T10:31:07.281Z,49.27
2022-10-05T10:33:45.889Z,50.23
2022-10-05T10:36:44.562Z,47.44
2022-10-05T10:39:29.754Z,45.88
2022-10-05T10:42:26.657Z,40.40
2022-10-05T10:45:19.412Z,39.59
2022-10-05T10:47:51.898Z,39.27
2022-10-05T10:50:55.827Z,38.58
2022-10-05T10:53:41.764Z,35.05
2022-10-05T10:56:46.537Z,35.23
2022-10-05T10:59:25.539Z,34.47
2022-10-05T11:02:12.808Z,34.76
2022-10-05T11:05:04.717Z,34.29
2022-10-05T11:07:58.907Z,35.14
2022-10-05T11:10:31.969Z,33.43
2022-10-05T11:13:17.183Z,33.76
2022-10-05T11:18:39.975Z,37.11
2022-10-05T11:21:33.809Z,41.13
2022-10-05T11:24:26.664Z,37.87
2022-10-05T11:27:12.146Z,35.00
2022-10-05T11:29:47.706Z,33.87
2022-10-05T11:32:26.437Z,34.69
2022-10-05T11:35:23.833Z,33.44
2022-10-05T11:38:16.725Z,36.67
2022-10-05T11:41:08.270Z,36.05
2022-10-05T11:44:07.026Z,33.96
2022-10-05T11:47:08.788Z,33.42
2022-10-05T11:49:49.607Z,34.16
2022-10-05T11:53:15.075Z,36.17
2022-10-05T11:56:08.114Z,39.20
2022-10-05T11:58:54.121Z,41.35
2022-10-05T12:01:42.011Z,43.39
2022-10-05T12:04:27.495Z,44.73
2022-10-05T12:07:00.160Z,46.40
2022-10-05T12:09:35.114Z,44.74
2022-10-05T12:12:06.236Z,44.94
2022-10-05T12:14:51.935Z,42.87
2022-10-05T12:17:24.804Z,41.80
2022-10-05T12:20:02.788Z,42.79
2022-10-05T12:22:45.335Z,43.46
2022-10-05T12:25:42.386Z,44.36
2022-10-05T12:28:28.082Z,46.67
2022-10-05T12:31:02.694Z,50.57
2022-10-05T12:33:36.878Z,46.95
2022-10-05T12:36:06.804Z,41.83
2022-10-05T12:38:58.284Z,44.12
2022-10-05T12:41:48.157Z,47.17
2022-10-05T12:44:33.393Z,46.07
2022-10-05T12:47:31.808Z,46.26
2022-10-05T12:50:41.670Z,51.95
2022-10-05T12:53:23.312Z,54.75
2022-10-05T12:55:59.203Z,52.94
2022-10-05T12:58:47.412Z,56.23
2022-10-05T13:01:34.316Z,50.92
2022-10-05T13:04:17.516Z,53.49
2022-10-05T13:07:25.790Z,50.42
2022-10-05T13:10:43.253Z,51.09
2022-10-05T13:13:21.925Z,52.33
2022-10-05T13:16:10.428Z,55.12
2022-10-05T13:19:06.584Z,53.42
2022-10-05T13:21:52.095Z,53.13
2022-10-05T13:24:36.417Z,51.96
2022-10-05T13:27:14.198Z,52.84
2022-10-05T13:30:13.496Z,56.45
2022-10-05T13:32:47.984Z,55.40
2022-10-05T13:35:23.278Z,60.07
2022-10-05T13:38:08.470Z,56.27
2022-10-05T13:41:09.337Z,60.90
2022-10-05T13:43:52.599Z,58.43
2022-10-05T13:46:30.291Z,64.17
2022-10-05T13:49:17.564Z,60.99
2022-10-05T13:51:46.713Z,60.69
2022-10-05T13:54:19.218Z,58.94
2022-10-05T13:57:07.101Z,58.97
2022-10-05T13:59:53.655Z,58.61
2022-10-05T14:02:29.636Z,58.23
2022-10-05T14:05:19.367Z,53.31
2022-10-05T14:07:58.594Z,53.93
2022-10-05T14:10:41.850Z,52.08
2022-10-05T14:13:13.423Z,55.87
2022-10-05T14:15:42.412Z,52.96
2022-10-05T14:18:24.772Z,57.20
2022-10-05T14:21:13.484Z,55.45
2022-10-05T14:23:40.278Z,55.56
2022-10-05T14:26:31.844Z,55.39
2022-10-05T14:29:16.399Z,54.84
2022-10-05T14:31:51.172Z,56.17
2022-10-05T14:34:29.235Z,56.31
2022-10-05T14:37:09.986Z,56.63
2022-10-05T14:39:40.558Z,56.01
2022-10-05T14:42:15.357Z,55.68
2022-10-05T14:44:43.267Z,57.17
2022-10-05T14:47:23.998Z,56.79
2022-10-05T14:50:10.774Z,56.31
2022-10-05T14:52:39.193Z,57.26
2022-10-05T14:55:29.149Z,57.52
2022-10-05T14:58:23.942Z,62.31
2022-10-05T15:01:02.729Z,60.35
2022-10-05T15:03:42.050Z,60.82
2022-10-05T15:06:33.107Z,59.33
2022-10-05T15:09:23.033Z,58.83
2022-10-05T15:11:53.256Z,59.17
2022-10-05T15:14:29.767Z,60.42
2022-10-05T15:17:03.207Z,59.29
2022-10-05T15:20:17.170Z,64.26
2022-10-05T15:22:49.769Z,64.21
2022-10-05T15:25:30.517Z,68.31
2022-10-05T15:28:19.038Z,69.06
2022-10-05T15:31:33.769Z,65.71
2022-10-05T15:34:15.878Z,71.48
2022-10-05T15:36:43.046Z,67.33
2022-10-05T15:39:37.576Z,65.05
2022-10-05T15:42:10.138Z,69.98
2022-10-05T15:44:49.351Z,69.19
2022-10-05T15:47:56.370Z,67.85
2022-10-05T15:50:38.035Z,69.70
2022-10-05T15:53:21.598Z,71.84
2022-10-05T15:55:55.663Z,71.95
2022-10-05T15:58:42.073Z,71.35
2022-10-05T16:01:17.646Z,68.37
2022-10-05T16:04:01.269Z,68.91
2022-10-05T16:06:56.493Z,67.52
2022-10-05T16:09:42.534Z,69.09
2022-10-05T16:12:14.280Z,70.70
2022-10-05T16:15:06.817Z,68.21
2022-10-05T16:17:48.725Z,68.23
2022-10-05T16:20:36.627Z,68.97
2022-10-05T16:23:39.787Z,68.98
2022-10-05T16:26:36.548Z,69.21
2022-10-05T16:29:12.991Z,69.75
2022-10-05T16:32:11.991Z,70.21
2022-10-05T16:35:04.889Z,71.57
2022-10-05T16:38:01.290Z,71.75
2022-10-05T16:40:44.471Z,71.75
2022-10-05T16:43:30.402Z,71.49
2022-10-05T16:46:12.428Z,71.72
2022-10-05T16:49:16.861Z,72.56
2022-10-05T16:52:07.009Z,71.95
2022-10-05T16:54:47.522Z,72.81
2022-10-05T16:57:22.171Z,71.92
2022-10-05T17:00:17.424Z,72.57
2022-10-05T17:02:58.654Z,73.30
2022-10-05T17:05:41.348Z,72.90
2022-10-05T17:08:21.556Z,73.92
2022-10-05T17:11:04.682Z,74.15
2022-10-05T17:13:44.680Z,74.07
2022-10-05T17:16:23.904Z,74.08
2022-10-05T17:19:11.923Z,74.42
2022-10-05T17:21:44.467Z,74.64
2022-10-05T17:24:41.706Z,74.97
2022-10-05T17:27:21.060Z,74.66
2022-10-05T17:29:52.291Z,74.62
2022-10-05T17:32:18.927Z,74.71
2022-10-05T17:35:00.862Z,73.86
2022-10-05T17:37:27.538Z,74.35
2022-10-05T17:39:56.236Z,73.40
2022-10-05T17:42:34.226Z,73.90
2022-10-05T17:45:20.824Z,73.47
2022-10-05T17:48:03.375Z,73.53
2022-10-05T17:51:03.538Z,73.52
2022-10-05T17:54:03.578Z,73.45
2022-10-05T17:56:35.610Z,73.40
2022-10-05T17:59:04.928Z,73.57
2022-10-05T18:01:40.250Z,73.38
2022-10-05T18:04:12.942Z,73.12
2022-10-05T18:06:52.916Z,72.74
2022-10-05T18:09:22.954Z,73.39
2022-10-05T18:12:08.708Z,73.63
2022-10-05T18:15:08.125Z,72.73
2022-10-05T18:17:47.015Z,73.83
2022-10-05T18:20:32.158Z,73.46
2022-10-05T18:23:09.458Z,73.71
2022-10-05T18:25:52.057Z,74.07
2022-10-05T18:28:40.197Z,74.86
2022-10-05T18:31:45.844Z,74.47
2022-10-05T18:34:39.446Z,75.75
2022-10-05T18:37:15.569Z,75.36
2022-10-05T18:39:54.762Z,75.80
2022-10-05T18:42:33.012Z,75.48
2022-10-05T18:45:18.829Z,74.56
2022-10-05T18:47:57.638Z,74.33
2022-10-05T18:50:44.389Z,74.38
2022-10-05T18:53:17.307Z,75.20
2022-10-05T18:55:57.814Z,73.86
2022-10-05T18:58:58.003Z,73.50
2022-10-05T19:02:11.040Z,73.13
2022-10-05T19:05:45.961Z,72.52
2022-10-05T19:08:35.903Z,72.52
2022-10-05T19:11:33.870Z,71.86
2022-10-05T19:14:22.030Z,72.37
2022-10-05T19:17:15.835Z,71.64
2022-10-05T19:20:04.358Z,71.95
2022-10-05T19:22:50.177Z,71.92
2022-10-05T19:25:49.233Z,72.62
2022-10-05T19:28:31.526Z,72.16
2022-10-05T19:31:27.008Z,72.45
2022-10-05T19:33:59.850Z,73.50
2022-10-05T19:36:53.356Z,73.32
2022-10-05T19:39:45.114Z,73.64
2022-10-05T19:42:41.026Z,73.14
2022-10-05T19:45:26.020Z,72.97
2022-10-05T19:48:27.868Z,74.32
2022-10-05T19:50:58.334Z,73.51
2022-10-05T19:53:37.115Z,73.64
2022-10-05T19:56:22.158Z,72.57
2022-10-05T19:58:50.275Z,72.72
2022-10-05T20:01:35.459Z,73.04
2022-10-05T20:04:02.866Z,72.58
2022-10-05T20:06:31.067Z,72.44
2022-10-05T20:09:00.129Z,72.30
2022-10-05T20:11:28.113Z,72.56
2022-10-05T20:13:58.530Z,72.36
2022-10-05T20:19:52.414Z,72.05
2022-10-05T20:22:29.222Z,72.29
2022-10-05T20:24:58.545Z,72.72
2022-10-05T20:27:40.953Z,74.04
2022-10-05T20:30:10.178Z,73.83
2022-10-05T20:32:36.807Z,73.68
2022-10-05T20:35:03.608Z,72.70
2022-10-05T20:37:30.213Z,72.93
2022-10-05T20:39:56.801Z,73.31
2022-10-05T20:42:23.874Z,73.50
2022-10-05T20:44:56.535Z,72.95
2022-10-05T20:47:24.122Z,73.41
2022-10-05T20:49:50.772Z,72.86
2022-10-05T20:52:17.647Z,73.25
2022-10-05T20:57:10.938Z,73.73
2022-10-05T20:59:37.601Z,74.36
2022-10-05T21:02:05.231Z,74.58
2022-10-05T21:04:42.869Z,73.99
2022-10-05T21:07:10.091Z,74.99
2022-10-05T21:09:38.466Z,75.07
2022-10-05T21:12:05.232Z,76.01
2022-10-05T21:14:34.509Z,75.54
2022-10-05T21:17:02.064Z,74.45
2022-10-05T21:19:29.532Z,73.76
2022-10-05T21:21:59.139Z,75.76
2022-10-05T21:24:25.846Z,75.67
2022-10-05T21:26:52.742Z,79.28
2022-10-05T21:29:19.399Z,81.27
2022-10-05T21:31:45.994Z,82.13
2022-10-05T21:34:12.695Z,83.55
2022-10-05T21:36:39.419Z,82.87
2022-10-05T21:39:05.999Z,83.41
2022-10-05T21:41:32.544Z,86.57
2022-10-05T21:43:59.161Z,86.19
2022-10-05T21:46:26.677Z,86.47
2022-10-05T21:48:54.646Z,87.86
2022-10-05T21:51:24.157Z,89.62
2022-10-05T21:53:56.267Z,91.01
2022-10-05T21:56:28.105Z,89.93
2022-10-05T21:58:55.187Z,91.64
2022-10-05T22:01:23.077Z,92.05
2022-10-05T22:03:49.965Z,92.49
2022-10-05T22:06:16.624Z,93.33
2022-10-05T22:08:43.347Z,93.77
2022-10-05T22:11:15.738Z,95.25
2022-10-05T22:13:53.124Z,95.14
2022-10-05T22:16:22.291Z,96.99
2022-10-05T22:18:49.419Z,96.07
2022-10-05T22:21:18.733Z,96.73
2022-10-05T22:23:46.097Z,97.42
2022-10-05T22:26:16.770Z,96.99
2022-10-05T22:28:43.649Z,98.06
2022-10-05T22:31:12.508Z,96.71
2022-10-05T22:33:40.050Z,97.46
2022-10-05T22:36:07.955Z,97.78
2022-10-05T22:38:34.504Z,98.57
2022-10-05T22:41:01.081Z,99.16
2022-10-05T22:43:27.801Z,99.50
2022-10-05T22:45:55.265Z,100.00
2022-10-05T22:48:22.511Z,100.00
2022-10-05T22:50:49.414Z,99.78
2022-10-05T22:53:16.287Z,100.00
2022-10-05T22:55:42.877Z,99.44
2022-10-05T22:58:09.733Z,100.00
2022-10-05T23:00:56.873Z,98.98
2022-10-05T23:03:23.168Z,99.54
2022-10-05T23:06:00.698Z,100.00
2022-10-05T23:08:27.842Z,100.00
2022-10-05T23:10:54.748Z,100.00
2022-10-05T23:13:22.520Z,100.00
2022-10-05T23:15:49.265Z,100.00
2022-10-05T23:18:16.828Z,100.00
2022-10-05T23:20:43.467Z,99.39
2022-10-05T23:23:10.514Z,97.88
2022-10-05T23:25:37.068Z,97.74
2022-10-05T23:28:03.937Z,98.74
2022-10-05T23:30:30.657Z,98.78
2022-10-05T23:32:57.269Z,100.00
2022-10-05T23:35:23.875Z,100.00
2022-10-05T23:37:50.479Z,100.00
2022-10-05T23:40:17.074Z,99.11
2022-10-05T23:42:43.611Z,98.24
2022-10-05T23:45:12.032Z,99.36
2022-10-05T23:47:39.565Z,99.25
2022-10-05T23:50:08.164Z,100.00
2022-10-05T23:52:35.442Z,100.00
2022-10-05T23:55:02.892Z,100.00
2022-10-05T23:57:29.416Z,100.00
2022-10-05T23:59:56.484Z,100.00
